Time,TemperatureF,DewpointF,PressureIn,WindDirection,WindDirectionDegrees,WindSpeedMPH,WindSpeedGustMPH,Humidity,HourlyPrecipIn,Conditions,Clouds,dailyrainin,SoftwareType,DateUTC
2013-03-19 00:00:00,32.1,32.1,29.88,SE,143,0.0,9.0,100,0.00,,,0.00,Wunderground v.1.15,2013-03-19 04:00:00,
2013-03-19 00:02:00,32.3,32.3,29.88,SE,143,0.0,9.0,100,0.00,,,0.00,Wunderground v.1.15,2013-03-19 04:02:00,
2013-03-19 00:08:00,32.1,32.1,29.89,SE,142,0.0,9.0,100,0.00,,,0.00,Wunderground v.1.15,2013-03-19 04:08:00,
2013-03-19 00:12:00,32.0,32.0,29.89,SE,143,0.0,9.0,100,0.00,,,0.00,Wunderground v.1.15,2013-03-19 04:12:00,
2013-03-19 00:18:00,31.8,31.8,29.89,SE,142,0.0,9.0,100,0.00,,,0.00,Wunderground v.1.15,2013-03-19 04:18:00,
2013-03-19 00:24:00,31.8,31.8,29.89,SE,142,0.0,9.0,100,0.00,,,0.00,Wunderground v.1.15,2013-03-19 04:24:00,
2013-03-19 00:30:00,31.6,31.6,29.88,SE,142,0.0,9.0,100,0.00,,,0.00,Wunderground v.1.15,2013-03-19 04:30:00,
2013-03-19 00:36:00,31.3,31.3,29.87,SE,142,0.0,9.0,100,0.00,,,0.00,Wunderground v.1.15,2013-03-19 04:36:00,
2013-03-19 00:42:00,31.5,31.5,29.88,SE,143,0.0,9.0,100,0.00,,,0.00,Wunderground v.1.15,2013-03-19 04:42:00,
2013-03-19 00:48:00,31.9,31.9,29.88,SE,143,0.0,9.0,100,0.00,,,0.00,Wunderground v.1.15,2013-03-19 04:48:00,
2013-03-19 00:54:00,33.2,33.2,29.88,SE,142,0.0,9.0,100,0.00,,,0.00,Wunderground v.1.15,2013-03-19 04:54:00,
2013-03-19 01:00:00,33.8,33.8,29.87,SE,142,0.0,9.0,100,0.00,,,0.00,Wunderground v.1.15,2013-03-19 05:00:00,
2013-03-19 01:08:00,33.5,33.5,29.87,SE,142,0.0,9.0,100,0.00,,,0.00,Wunderground v.1.15,2013-03-19 05:08:00,
2013-03-19 01:14:00,34.3,34.3,29.86,SE,142,0.0,9.0,100,0.00,,,0.00,Wunderground v.1.15,2013-03-19 05:14:00,
2013-03-19 01:20:00,35.9,35.9,29.86,SE,143,0.0,9.0,100,0.00,,,0.00,Wunderground v.1.15,2013-03-19 05:20:00,
2013-03-19 01:26:00,36.0,36.0,29.86,SE,143,0.0,9.0,100,0.00,,,0.00,Wunderground v.1.15,2013-03-19 05:26:00,
2013-03-19 01:32:00,36.7,36.7,29.85,SSW,210,0.0,9.0,100,0.00,,,0.00,Wunderground v.1.15,2013-03-19 05:32:00,
2013-03-19 01:38:00,36.5,36.5,29.86,SW,215,0.0,9.0,100,0.00,,,0.00,Wunderground v.1.15,2013-03-19 05:38:00,
2013-03-19 01:44:00,36.3,36.3,29.85,SW,219,0.0,9.0,100,0.00,,,0.00,Wunderground v.1.15,2013-03-19 05:44:00,
2013-03-19 01:50:00,36.2,36.2,29.85,SW,233,0.0,9.0,100,0.00,,,0.00,Wunderground v.1.15,2013-03-19 05:50:00,
2013-03-19 01:56:00,35.9,35.9,29.85,SW,235,0.0,9.0,100,0.00,,,0.00,Wunderground v.1.15,2013-03-19 05:56:00,
2013-03-19 02:02:00,36.7,36.7,29.84,West,260,1.0,9.0,100,0.00,,,0.00,Wunderground v.1.15,2013-03-19 06:02:00,
2013-03-19 02:08:00,36.4,36.4,29.85,West,269,3.0,9.0,100,0.00,,,0.00,Wunderground v.1.15,2013-03-19 06:08:00,
2013-03-19 02:14:00,36.5,36.5,29.84,ENE,72,9.0,18.0,100,0.00,,,0.00,Wunderground v.1.15,2013-03-19 06:14:00,
2013-03-19 02:20:00,36.8,36.8,29.84,ENE,73,13.0,13.0,100,0.00,,,0.00,Wunderground v.1.15,2013-03-19 06:20:00,
2013-03-19 02:26:00,37.2,37.2,29.84,ENE,74,12.0,16.0,100,0.00,,,0.00,Wunderground v.1.15,2013-03-19 06:26:00,
2013-03-19 02:32:00,37.3,37.3,29.83,East,81,11.0,13.0,100,0.00,,,0.00,Wunderground v.1.15,2013-03-19 06:32:00,
2013-03-19 02:38:00,37.4,37.4,29.83,ENE,68,11.0,13.0,100,0.00,,,0.00,Wunderground v.1.15,2013-03-19 06:38:00,
2013-03-19 02:44:00,37.7,37.7,29.83,ENE,72,11.0,15.0,100,0.00,,,0.01,Wunderground v.1.15,2013-03-19 06:44:00,
2013-03-19 02:50:00,37.5,37.5,29.83,ENE,70,11.0,11.0,100,0.20,,,0.03,Wunderground v.1.15,2013-03-19 06:50:00,
2013-03-19 02:56:00,37.5,37.5,29.82,ENE,74,10.0,11.0,100,0.16,,,0.05,Wunderground v.1.15,2013-03-19 06:56:00,
2013-03-19 03:02:00,37.8,37.8,29.82,ENE,60,11.0,14.0,100,0.16,,,0.07,Wunderground v.1.15,2013-03-19 07:02:00,
2013-03-19 03:08:00,38.4,38.4,29.82,ENE,70,11.0,14.0,100,0.17,,,0.08,Wunderground v.1.15,2013-03-19 07:08:00,
2013-03-19 03:14:00,39.3,39.3,29.82,ENE,74,11.0,21.0,100,0.17,,,0.10,Wunderground v.1.15,2013-03-19 07:14:00,
2013-03-19 03:20:00,39.6,39.6,29.82,ENE,70,11.0,11.0,100,0.18,,,0.12,Wunderground v.1.15,2013-03-19 07:20:00,
2013-03-19 03:26:00,39.3,39.3,29.82,ENE,74,11.0,13.0,100,0.15,,,0.13,Wunderground v.1.15,2013-03-19 07:26:00,
2013-03-19 03:32:00,38.9,38.9,29.82,ENE,72,11.0,13.0,100,0.13,,,0.15,Wunderground v.1.15,2013-03-19 07:32:00,
2013-03-19 03:38:00,39.1,39.1,29.81,ENE,75,11.0,18.0,100,0.16,,,0.16,Wunderground v.1.15,2013-03-19 07:38:00,
2013-03-19 03:44:00,39.2,39.2,29.81,ENE,73,11.0,12.0,100,0.14,,,0.18,Wunderground v.1.15,2013-03-19 07:44:00,
2013-03-19 03:50:00,39.3,39.3,29.80,ENE,73,11.0,18.0,100,0.11,,,0.19,Wunderground v.1.15,2013-03-19 07:50:00,
2013-03-19 03:56:00,39.4,39.4,29.80,ENE,74,12.0,18.0,100,0.10,,,0.20,Wunderground v.1.15,2013-03-19 07:56:00,
2013-03-19 04:02:00,39.1,39.1,29.80,ENE,74,13.0,15.0,100,0.10,,,0.21,Wunderground v.1.15,2013-03-19 08:02:00,
2013-03-19 04:08:00,38.4,38.4,29.79,ENE,74,12.0,17.0,100,0.07,,,0.21,Wunderground v.1.15,2013-03-19 08:08:00,
2013-03-19 04:14:00,37.9,37.9,29.78,ENE,72,12.0,17.0,100,0.04,,,0.21,Wunderground v.1.15,2013-03-19 08:14:00,
2013-03-19 04:20:00,38.9,38.9,29.78,ENE,75,12.0,12.0,100,0.04,,,0.22,Wunderground v.1.15,2013-03-19 08:20:00,
2013-03-19 04:26:00,40.6,40.6,29.78,ENE,74,13.0,25.0,100,0.04,,,0.22,Wunderground v.1.15,2013-03-19 08:26:00,
2013-03-19 04:32:00,41.3,41.3,29.78,ENE,75,13.0,17.0,100,0.04,,,0.22,Wunderground v.1.15,2013-03-19 08:32:00,
2013-03-19 04:38:00,40.3,40.3,29.78,ENE,73,11.0,17.0,100,0.00,,,0.22,Wunderground v.1.15,2013-03-19 08:38:00,
2013-03-19 04:44:00,39.2,39.2,29.78,ENE,74,10.0,15.0,100,0.00,,,0.22,Wunderground v.1.15,2013-03-19 08:44:00,
2013-03-19 04:50:00,39.3,39.3,29.77,ENE,74,11.0,12.0,100,0.00,,,0.22,Wunderground v.1.15,2013-03-19 08:50:00,
2013-03-19 04:58:00,39.6,39.6,29.77,ENE,75,12.0,16.0,100,0.00,,,0.22,Wunderground v.1.15,2013-03-19 08:58:00,
2013-03-19 05:04:00,40.5,40.5,29.77,ENE,76,12.0,21.0,100,0.00,,,0.22,Wunderground v.1.15,2013-03-19 09:04:00,
2013-03-19 05:10:00,40.8,40.8,29.77,ENE,74,13.0,13.0,100,0.00,,,0.22,Wunderground v.1.15,2013-03-19 09:10:00,
2013-03-19 05:18:00,40.8,40.8,29.76,ENE,77,15.0,18.0,100,0.00,,,0.22,Wunderground v.1.15,2013-03-19 09:18:00,
2013-03-19 05:24:00,40.3,40.3,29.76,ENE,75,15.0,18.0,100,0.00,,,0.22,Wunderground v.1.15,2013-03-19 09:24:00,
2013-03-19 05:30:00,40.3,40.3,29.76,ENE,70,14.0,20.0,100,0.00,,,0.22,Wunderground v.1.15,2013-03-19 09:30:00,
2013-03-19 05:38:00,40.5,40.5,29.76,ENE,74,15.0,20.0,100,0.00,,,0.22,Wunderground v.1.15,2013-03-19 09:38:00,
2013-03-19 05:44:00,40.4,40.4,29.76,ENE,72,15.0,17.0,100,0.00,,,0.22,Wunderground v.1.15,2013-03-19 09:44:00,
2013-03-19 05:50:00,39.8,39.8,29.76,ENE,75,15.0,15.0,100,0.00,,,0.22,Wunderground v.1.15,2013-03-19 09:50:00,
2013-03-19 05:58:00,39.4,39.4,29.76,ENE,70,13.0,20.0,100,0.00,,,0.22,Wunderground v.1.15,2013-03-19 09:58:00,
2013-03-19 06:04:00,39.3,39.3,29.76,ENE,73,11.0,12.0,100,0.00,,,0.22,Wunderground v.1.15,2013-03-19 10:04:00,
2013-03-19 06:10:00,39.2,39.2,29.76,ENE,72,11.0,12.0,100,0.00,,,0.22,Wunderground v.1.15,2013-03-19 10:10:00,
2013-03-19 06:16:00,39.1,39.1,29.76,ENE,77,13.0,16.0,100,0.00,,,0.22,Wunderground v.1.15,2013-03-19 10:16:00,
2013-03-19 06:22:00,38.9,38.9,29.76,ENE,73,11.0,12.0,100,0.00,,,0.22,Wunderground v.1.15,2013-03-19 10:22:00,
2013-03-19 06:28:00,38.8,38.8,29.77,ENE,75,11.0,16.0,100,0.00,,,0.22,Wunderground v.1.15,2013-03-19 10:28:00,
2013-03-19 06:34:00,38.6,38.6,29.77,ENE,77,12.0,17.0,100,0.00,,,0.22,Wunderground v.1.15,2013-03-19 10:34:00,
2013-03-19 06:40:00,38.6,38.6,29.77,ENE,75,11.0,11.0,100,0.00,,,0.22,Wunderground v.1.15,2013-03-19 10:40:00,
2013-03-19 06:48:00,38.3,38.3,29.77,ENE,76,12.0,13.0,100,0.00,,,0.22,Wunderground v.1.15,2013-03-19 10:48:00,
2013-03-19 06:54:00,38.1,38.1,29.78,ENE,78,11.0,16.0,100,0.00,,,0.22,Wunderground v.1.15,2013-03-19 10:54:00,
2013-03-19 07:00:00,37.9,37.9,29.77,ENE,77,11.0,11.0,100,0.00,,,0.22,Wunderground v.1.15,2013-03-19 11:00:00,
2013-03-19 07:08:00,37.9,37.9,29.78,ENE,74,10.0,14.0,100,0.00,,,0.22,Wunderground v.1.15,2013-03-19 11:08:00,
2013-03-19 07:14:00,38.0,38.0,29.78,ENE,77,9.0,15.0,100,0.00,,,0.22,Wunderground v.1.15,2013-03-19 11:14:00,
2013-03-19 07:20:00,38.1,38.1,29.78,ENE,75,10.0,13.0,100,0.00,,,0.22,Wunderground v.1.15,2013-03-19 11:20:00,
2013-03-19 07:28:00,38.1,37.8,29.78,East,82,12.0,18.0,99,0.00,,,0.22,Wunderground v.1.15,2013-03-19 11:28:00,
2013-03-19 07:34:00,38.2,37.7,29.79,ENE,76,14.0,15.0,98,0.00,,,0.22,Wunderground v.1.15,2013-03-19 11:34:00,
2013-03-19 07:40:00,38.1,37.6,29.79,ENE,76,13.0,20.0,98,0.00,,,0.22,Wunderground v.1.15,2013-03-19 11:40:00,
2013-03-19 07:46:00,38.1,37.3,29.79,ENE,75,12.0,20.0,97,0.00,,,0.22,Wunderground v.1.15,2013-03-19 11:46:00,
2013-03-19 07:52:00,37.9,37.1,29.80,ENE,76,11.0,18.0,97,0.00,,,0.22,Wunderground v.1.15,2013-03-19 11:52:00,
2013-03-19 07:58:00,37.9,37.1,29.80,ENE,78,12.0,18.0,97,0.00,,,0.22,Wunderground v.1.15,2013-03-19 11:58:00,
2013-03-19 08:04:00,38.0,37.0,29.79,ENE,74,13.0,13.0,96,0.00,,,0.22,Wunderground v.1.15,2013-03-19 12:04:00,
2013-03-19 08:10:00,37.5,36.5,29.79,ENE,77,14.0,15.0,96,0.00,,,0.22,Wunderground v.1.15,2013-03-19 12:10:00,
2013-03-19 08:16:00,37.1,36.1,29.79,East,79,14.0,16.0,96,0.00,,,0.22,Wunderground v.1.15,2013-03-19 12:16:00,
2013-03-19 08:26:00,36.7,35.7,29.78,ENE,71,17.0,22.0,96,0.00,,,0.22,Wunderground v.1.15,2013-03-19 12:26:00,
2013-03-19 08:32:00,36.7,35.7,29.79,ENE,78,16.0,19.0,96,0.00,,,0.22,Wunderground v.1.15,2013-03-19 12:32:00,
2013-03-19 08:38:00,36.9,35.9,29.79,ENE,76,14.0,19.0,96,0.00,,,0.22,Wunderground v.1.15,2013-03-19 12:38:00,
2013-03-19 08:44:00,37.1,35.8,29.80,ENE,76,13.0,14.0,95,0.00,,,0.22,Wunderground v.1.15,2013-03-19 12:44:00,
2013-03-19 08:50:00,36.9,35.6,29.80,ENE,74,14.0,15.0,95,0.00,,,0.22,Wunderground v.1.15,2013-03-19 12:50:00,
2013-03-19 08:56:00,36.9,35.3,29.80,ENE,73,13.0,26.0,94,0.00,,,0.22,Wunderground v.1.15,2013-03-19 12:56:00,
2013-03-19 09:02:00,36.6,35.0,29.80,East,81,13.0,27.0,94,0.00,,,0.22,Wunderground v.1.15,2013-03-19 13:02:00,
2013-03-19 09:08:00,36.6,34.8,29.80,ENE,73,13.0,27.0,93,0.00,,,0.22,Wunderground v.1.15,2013-03-19 13:08:00,
2013-03-19 09:14:00,36.3,33.9,29.80,ENE,75,13.0,23.0,91,0.00,,,0.22,Wunderground v.1.15,2013-03-19 13:14:00,
2013-03-19 09:20:00,36.3,33.6,29.80,ENE,77,13.0,13.0,90,0.00,,,0.22,Wunderground v.1.15,2013-03-19 13:20:00,
2013-03-19 09:26:00,36.3,33.6,29.80,ENE,77,14.0,19.0,90,0.00,,,0.22,Wunderground v.1.15,2013-03-19 13:26:00,
2013-03-19 09:32:00,36.4,33.5,29.80,East,81,14.0,18.0,89,0.00,,,0.22,Wunderground v.1.15,2013-03-19 13:32:00,
2013-03-19 09:38:00,36.5,33.3,29.80,East,80,11.0,18.0,88,0.00,,,0.22,Wunderground v.1.15,2013-03-19 13:38:00,
2013-03-19 09:44:00,36.5,32.4,29.79,ENE,77,12.0,17.0,85,0.00,,,0.22,Wunderground v.1.15,2013-03-19 13:44:00,
2013-03-19 09:50:00,36.5,32.4,29.79,ENE,74,14.0,14.0,85,0.00,,,0.22,Wunderground v.1.15,2013-03-19 13:50:00,
2013-03-19 09:56:00,36.7,31.1,29.79,ENE,75,14.0,21.0,80,0.00,,,0.22,Wunderground v.1.15,2013-03-19 13:56:00,
2013-03-19 10:02:00,36.8,31.2,29.79,ENE,78,13.0,17.0,80,0.00,,,0.22,Wunderground v.1.15,2013-03-19 14:02:00,
2013-03-19 10:08:00,36.9,31.6,29.79,ENE,76,11.0,17.0,81,0.00,,,0.22,Wunderground v.1.15,2013-03-19 14:08:00,
2013-03-19 10:14:00,36.8,30.9,29.79,ENE,76,12.0,18.0,79,0.00,,,0.22,Wunderground v.1.15,2013-03-19 14:14:00,
2013-03-19 10:20:00,36.8,29.9,29.78,ENE,78,14.0,14.0,76,0.00,,,0.22,Wunderground v.1.15,2013-03-19 14:20:00,
2013-03-19 10:26:00,36.9,29.4,29.78,ENE,75,16.0,18.0,74,0.00,,,0.22,Wunderground v.1.15,2013-03-19 14:26:00,
2013-03-19 10:32:00,36.9,29.1,29.79,East,81,14.0,15.0,73,0.00,,,0.22,Wunderground v.1.15,2013-03-19 14:32:00,
2013-03-19 10:38:00,37.0,28.5,29.79,ENE,76,14.0,21.0,71,0.00,,,0.22,Wunderground v.1.15,2013-03-19 14:38:00,
2013-03-19 10:44:00,37.1,27.2,29.79,ENE,74,15.0,22.0,67,0.00,,,0.22,Wunderground v.1.15,2013-03-19 14:44:00,
2013-03-19 10:50:00,37.2,26.9,29.79,ENE,76,17.0,17.0,66,0.00,,,0.22,Wunderground v.1.15,2013-03-19 14:50:00,
2013-03-19 10:56:00,37.4,25.6,29.79,East,79,18.0,25.0,62,0.00,,,0.22,Wunderground v.1.15,2013-03-19 14:56:00,
2013-03-19 11:02:00,37.6,26.1,29.79,ENE,72,17.0,26.0,63,0.00,,,0.22,Wunderground v.1.15,2013-03-19 15:02:00,
2013-03-19 11:08:00,37.7,25.1,29.77,East,82,16.0,30.0,60,0.00,,,0.22,Wunderground v.1.15,2013-03-19 15:08:00,
2013-03-19 11:14:00,37.8,24.3,29.78,East,79,17.0,26.0,58,0.00,,,0.22,Wunderground v.1.15,2013-03-19 15:14:00,
2013-03-19 11:20:00,38.0,24.9,29.78,East,97,17.0,23.0,59,0.00,,,0.22,Wunderground v.1.15,2013-03-19 15:20:00,
2013-03-19 11:26:00,37.8,24.3,29.77,East,79,20.0,33.0,58,0.00,,,0.22,Wunderground v.1.15,2013-03-19 15:26:00,
2013-03-19 11:32:00,37.9,21.4,29.76,East,79,23.0,23.0,51,0.00,,,0.22,Wunderground v.1.15,2013-03-19 15:32:00,
2013-03-19 11:38:00,38.2,20.2,29.78,ENE,75,22.0,29.0,48,0.00,,,0.22,Wunderground v.1.15,2013-03-19 15:38:00,
2013-03-19 11:44:00,38.4,20.9,29.78,ENE,75,21.0,25.0,49,0.00,,,0.22,Wunderground v.1.15,2013-03-19 15:44:00,
2013-03-19 11:50:00,38.7,20.7,29.78,ENE,76,20.0,25.0,48,0.00,,,0.22,Wunderground v.1.15,2013-03-19 15:50:00,
2013-03-19 11:56:00,38.8,21.7,29.77,ENE,75,18.0,28.0,50,0.00,,,0.22,Wunderground v.1.15,2013-03-19 15:56:00,
2013-03-19 12:02:00,38.8,21.7,29.78,ENE,77,17.0,23.0,50,0.00,,,0.22,Wunderground v.1.15,2013-03-19 16:02:00,
2013-03-19 12:08:00,38.7,21.2,29.77,ENE,74,19.0,23.0,49,0.00,,,0.22,Wunderground v.1.15,2013-03-19 16:08:00,
2013-03-19 12:14:00,39.0,22.4,29.77,ENE,77,18.0,25.0,51,0.00,,,0.22,Wunderground v.1.15,2013-03-19 16:14:00,
2013-03-19 12:20:00,38.8,21.3,29.78,ENE,72,18.0,22.0,49,0.00,,,0.22,Wunderground v.1.15,2013-03-19 16:20:00,
2013-03-19 12:26:00,38.7,22.1,29.79,East,79,20.0,28.0,51,0.00,,,0.22,Wunderground v.1.15,2013-03-19 16:26:00,
2013-03-19 12:32:00,38.7,23.0,29.78,ENE,74,21.0,21.0,53,0.00,,,0.22,Wunderground v.1.15,2013-03-19 16:32:00,
2013-03-19 12:38:00,39.0,22.8,29.78,ENE,74,20.0,22.0,52,0.00,,,0.22,Wunderground v.1.15,2013-03-19 16:38:00,
2013-03-19 12:44:00,39.0,23.3,29.80,East,80,20.0,21.0,53,0.00,,,0.22,Wunderground v.1.15,2013-03-19 16:44:00,
2013-03-19 12:50:00,39.2,22.6,29.80,ENE,70,19.0,19.0,51,0.00,,,0.22,Wunderground v.1.15,2013-03-19 16:50:00,
2013-03-19 12:56:00,39.4,22.8,29.80,ENE,75,19.0,28.0,51,0.00,,,0.22,Wunderground v.1.15,2013-03-19 16:56:00,
2013-03-19 13:02:00,39.4,22.3,29.79,ENE,75,19.0,19.0,50,0.00,,,0.22,Wunderground v.1.15,2013-03-19 17:02:00,
2013-03-19 13:08:00,39.4,22.3,29.79,ENE,76,20.0,26.0,50,0.00,,,0.22,Wunderground v.1.15,2013-03-19 17:08:00,
2013-03-19 13:14:00,39.5,22.8,29.80,ENE,76,18.0,26.0,51,0.00,,,0.22,Wunderground v.1.15,2013-03-19 17:14:00,
2013-03-19 13:20:00,39.6,23.9,29.80,ENE,74,18.0,26.0,53,0.00,,,0.22,Wunderground v.1.15,2013-03-19 17:20:00,
2013-03-19 13:26:00,39.9,24.1,29.79,ENE,74,17.0,26.0,53,0.00,,,0.22,Wunderground v.1.15,2013-03-19 17:26:00,
2013-03-19 13:32:00,40.4,25.1,29.80,ENE,72,15.0,16.0,54,0.00,,,0.22,Wunderground v.1.15,2013-03-19 17:32:00,
2013-03-19 13:38:00,40.9,25.1,29.80,ENE,69,12.0,17.0,53,0.00,,,0.22,Wunderground v.1.15,2013-03-19 17:38:00,
2013-03-19 13:44:00,40.8,24.1,29.79,ENE,74,13.0,16.0,51,0.00,,,0.22,Wunderground v.1.15,2013-03-19 17:44:00,
2013-03-19 13:50:00,40.8,25.0,29.79,ENE,72,16.0,16.0,53,0.00,,,0.22,Wunderground v.1.15,2013-03-19 17:50:00,
2013-03-19 13:56:00,40.9,25.1,29.79,ENE,75,15.0,25.0,53,0.00,,,0.22,Wunderground v.1.15,2013-03-19 17:56:00,
2013-03-19 14:02:00,41.5,25.2,29.80,ENE,76,13.0,13.0,52,0.00,,,0.22,Wunderground v.1.15,2013-03-19 18:02:00,
2013-03-19 14:08:00,42.4,25.5,29.80,ENE,75,9.0,13.0,51,0.00,,,0.22,Wunderground v.1.15,2013-03-19 18:08:00,
2013-03-19 14:14:00,42.6,23.8,29.79,ENE,74,8.0,20.0,47,0.00,,,0.22,Wunderground v.1.15,2013-03-19 18:14:00,
2013-03-19 14:20:00,42.5,24.7,29.78,ENE,72,10.0,10.0,49,0.00,,,0.22,Wunderground v.1.15,2013-03-19 18:20:00,
2013-03-19 14:26:00,42.6,24.8,29.78,ENE,72,11.0,16.0,49,0.00,,,0.22,Wunderground v.1.15,2013-03-19 18:26:00,
2013-03-19 14:32:00,42.5,24.7,29.77,ENE,74,12.0,16.0,49,0.00,,,0.22,Wunderground v.1.15,2013-03-19 18:32:00,
2013-03-19 14:38:00,42.7,25.3,29.77,ENE,68,11.0,17.0,50,0.00,,,0.22,Wunderground v.1.15,2013-03-19 18:38:00,
2013-03-19 14:44:00,43.1,24.7,29.76,ENE,72,10.0,11.0,48,0.00,,,0.22,Wunderground v.1.15,2013-03-19 18:44:00,
2013-03-19 14:50:00,43.3,23.4,29.76,ENE,71,12.0,12.0,45,0.00,,,0.22,Wunderground v.1.15,2013-03-19 18:50:00,
2013-03-19 14:56:00,43.8,23.3,29.76,ENE,72,11.0,12.0,44,0.00,,,0.22,Wunderground v.1.15,2013-03-19 18:56:00,
2013-03-19 15:02:00,43.4,23.4,29.76,ENE,72,11.0,11.0,45,0.00,,,0.22,Wunderground v.1.15,2013-03-19 19:02:00,
2013-03-19 15:08:00,43.7,24.2,29.77,ENE,72,12.0,16.0,46,0.00,,,0.22,Wunderground v.1.15,2013-03-19 19:08:00,
2013-03-19 15:14:00,43.4,22.4,29.76,ENE,77,12.0,22.0,43,0.00,,,0.22,Wunderground v.1.15,2013-03-19 19:14:00,
2013-03-19 15:20:00,43.6,22.5,29.76,ENE,74,13.0,26.0,43,0.00,,,0.22,Wunderground v.1.15,2013-03-19 19:20:00,
2013-03-19 15:26:00,43.6,22.0,29.77,ENE,74,16.0,26.0,42,0.00,,,0.22,Wunderground v.1.15,2013-03-19 19:26:00,
2013-03-19 15:32:00,43.9,22.3,29.76,ENE,75,14.0,23.0,42,0.00,,,0.22,Wunderground v.1.15,2013-03-19 19:32:00,
2013-03-19 15:38:00,44.2,23.1,29.77,ENE,72,13.0,23.0,43,0.00,,,0.22,Wunderground v.1.15,2013-03-19 19:38:00,
2013-03-19 15:44:00,44.2,22.5,29.77,ENE,72,14.0,20.0,42,0.00,,,0.22,Wunderground v.1.15,2013-03-19 19:44:00,
2013-03-19 15:50:00,45.0,23.3,29.77,ENE,75,13.0,13.0,42,0.00,,,0.22,Wunderground v.1.15,2013-03-19 19:50:00,
2013-03-19 15:58:00,45.6,22.0,29.76,ENE,74,9.0,13.0,39,0.00,,,0.22,Wunderground v.1.15,2013-03-19 19:58:00,
2013-03-19 16:04:00,44.9,20.2,29.75,ENE,72,14.0,30.0,37,0.00,,,0.22,Wunderground v.1.15,2013-03-19 20:04:00,
2013-03-19 16:10:00,44.9,17.5,29.76,ENE,74,16.0,27.0,33,0.00,,,0.22,Wunderground v.1.15,2013-03-19 20:10:00,
2013-03-19 16:18:00,45.2,18.5,29.76,ENE,72,16.0,27.0,34,0.00,,,0.22,Wunderground v.1.15,2013-03-19 20:18:00,
2013-03-19 16:24:00,45.3,18.5,29.77,ENE,71,14.0,22.0,34,0.00,,,0.22,Wunderground v.1.15,2013-03-19 20:24:00,
2013-03-19 16:30:00,44.9,16.8,29.76,ENE,74,15.0,16.0,32,0.00,,,0.22,Wunderground v.1.15,2013-03-19 20:30:00,
2013-03-19 16:36:00,44.5,15.7,29.76,ENE,77,19.0,31.0,31,0.00,,,0.22,Wunderground v.1.15,2013-03-19 20:36:00,
2013-03-19 16:42:00,44.0,12.9,29.74,ENE,69,22.0,35.0,28,0.00,,,0.22,Wunderground v.1.15,2013-03-19 20:42:00,
2013-03-19 16:48:00,43.9,12.8,29.78,ENE,78,24.0,35.0,28,0.00,,,0.22,Wunderground v.1.15,2013-03-19 20:48:00,
2013-03-19 16:54:00,44.0,13.7,29.78,ENE,73,21.0,24.0,29,0.00,,,0.22,Wunderground v.1.15,2013-03-19 20:54:00,
2013-03-19 17:00:00,43.9,12.8,29.78,ENE,74,18.0,18.0,28,0.00,,,0.22,Wunderground v.1.15,2013-03-19 21:00:00,
2013-03-19 17:08:00,43.3,6.9,29.77,East,82,24.0,37.0,22,0.00,,,0.22,Wunderground v.1.15,2013-03-19 21:08:00,
2013-03-19 17:14:00,43.4,8.0,29.77,ENE,77,23.0,25.0,23,0.00,,,0.22,Wunderground v.1.15,2013-03-19 21:14:00,
2013-03-19 17:20:00,42.9,7.6,29.77,East,82,22.0,22.0,23,0.00,,,0.22,Wunderground v.1.15,2013-03-19 21:20:00,
2013-03-19 17:26:00,42.9,6.6,29.77,ENE,78,22.0,25.0,22,0.00,,,0.22,Wunderground v.1.15,2013-03-19 21:26:00,
2013-03-19 17:32:00,42.9,7.6,29.78,ENE,75,19.0,21.0,23,0.00,,,0.22,Wunderground v.1.15,2013-03-19 21:32:00,
2013-03-19 17:38:00,42.7,7.4,29.78,ENE,74,17.0,27.0,23,0.00,,,0.22,Wunderground v.1.15,2013-03-19 21:38:00,
2013-03-19 17:44:00,42.7,7.4,29.78,ENE,78,19.0,19.0,23,0.00,,,0.22,Wunderground v.1.15,2013-03-19 21:44:00,
2013-03-19 17:50:00,42.6,8.3,29.78,East,82,19.0,19.0,24,0.00,,,0.22,Wunderground v.1.15,2013-03-19 21:50:00,
2013-03-19 17:56:00,42.6,8.3,29.79,East,79,19.0,27.0,24,0.00,,,0.22,Wunderground v.1.15,2013-03-19 21:56:00,
2013-03-19 18:02:00,42.7,8.4,29.79,ENE,76,18.0,18.0,24,0.00,,,0.22,Wunderground v.1.15,2013-03-19 22:02:00,
2013-03-19 18:08:00,42.6,8.3,29.79,ENE,76,13.0,25.0,24,0.00,,,0.22,Wunderground v.1.15,2013-03-19 22:08:00,
2013-03-19 18:14:00,42.3,8.9,29.80,ENE,74,13.0,17.0,25,0.00,,,0.22,Wunderground v.1.15,2013-03-19 22:14:00,
2013-03-19 18:20:00,42.0,8.7,29.80,ENE,74,14.0,16.0,25,0.00,,,0.22,Wunderground v.1.15,2013-03-19 22:20:00,
2013-03-19 18:26:00,42.0,8.7,29.81,ENE,78,13.0,16.0,25,0.00,,,0.22,Wunderground v.1.15,2013-03-19 22:26:00,
2013-03-19 18:32:00,41.9,8.6,29.80,ENE,75,11.0,11.0,25,0.00,,,0.22,Wunderground v.1.15,2013-03-19 22:32:00,
2013-03-19 18:38:00,41.1,3.0,29.78,ENE,74,17.0,27.0,20,0.00,,,0.22,Wunderground v.1.15,2013-03-19 22:38:00,
2013-03-19 18:44:00,40.8,2.7,29.80,ENE,74,21.0,21.0,20,0.00,,,0.22,Wunderground v.1.15,2013-03-19 22:44:00,
2013-03-19 18:50:00,40.5,3.6,29.80,ENE,77,19.0,19.0,21,0.00,,,0.22,Wunderground v.1.15,2013-03-19 22:50:00,
2013-03-19 18:56:00,40.2,4.3,29.81,ENE,74,18.0,20.0,22,0.00,,,0.22,Wunderground v.1.15,2013-03-19 22:56:00,
2013-03-19 19:02:00,39.8,4.0,29.80,East,79,18.0,19.0,22,0.00,,,0.22,Wunderground v.1.15,2013-03-19 23:02:00,
2013-03-19 19:08:00,39.6,3.8,29.81,East,80,19.0,22.0,22,0.00,,,0.22,Wunderground v.1.15,2013-03-19 23:08:00,
2013-03-19 19:14:00,39.2,3.5,29.82,East,79,18.0,26.0,22,0.00,,,0.22,Wunderground v.1.15,2013-03-19 23:14:00,
2013-03-19 19:20:00,38.6,4.9,29.82,ENE,75,15.0,18.0,24,0.00,,,0.22,Wunderground v.1.15,2013-03-19 23:20:00,
2013-03-19 19:26:00,38.3,4.6,29.82,ENE,76,14.0,18.0,24,0.00,,,0.22,Wunderground v.1.15,2013-03-19 23:26:00,
2013-03-19 19:32:00,38.1,5.3,29.83,ENE,78,14.0,20.0,25,0.00,,,0.22,Wunderground v.1.15,2013-03-19 23:32:00,
2013-03-19 19:38:00,37.9,6.0,29.82,East,94,14.0,25.0,26,0.00,,,0.22,Wunderground v.1.15,2013-03-19 23:38:00,
2013-03-19 19:44:00,37.7,5.8,29.83,ENE,77,16.0,18.0,26,0.00,,,0.22,Wunderground v.1.15,2013-03-19 23:44:00,
2013-03-19 19:50:00,37.3,6.3,29.83,ENE,76,14.0,14.0,27,0.00,,,0.22,Wunderground v.1.15,2013-03-19 23:50:00,
2013-03-19 19:56:00,37.2,5.4,29.83,ENE,78,13.0,19.0,26,0.00,,,0.22,Wunderground v.1.15,2013-03-19 23:56:00,
2013-03-19 20:02:00,37.0,5.2,29.84,ENE,76,15.0,15.0,26,0.00,,,0.22,Wunderground v.1.15,2013-03-20 00:02:00,
2013-03-19 20:08:00,36.8,5.1,29.83,ENE,77,14.0,16.0,26,0.00,,,0.22,Wunderground v.1.15,2013-03-20 00:08:00,
2013-03-19 20:14:00,36.5,5.6,29.83,ENE,75,15.0,16.0,27,0.00,,,0.22,Wunderground v.1.15,2013-03-20 00:14:00,
2013-03-19 20:20:00,36.2,5.4,29.84,ENE,75,16.0,16.0,27,0.00,,,0.22,Wunderground v.1.15,2013-03-20 00:20:00,
2013-03-19 20:26:00,36.1,3.6,29.83,ENE,76,16.0,29.0,25,0.00,,,0.22,Wunderground v.1.15,2013-03-20 00:26:00,
2013-03-19 20:32:00,35.9,4.3,29.84,East,85,19.0,27.0,26,0.00,,,0.22,Wunderground v.1.15,2013-03-20 00:32:00,
2013-03-19 20:38:00,35.7,4.1,29.84,ENE,75,18.0,27.0,26,0.00,,,0.22,Wunderground v.1.15,2013-03-20 00:38:00,
2013-03-19 20:44:00,35.5,3.1,29.83,East,80,19.0,34.0,25,0.00,,,0.22,Wunderground v.1.15,2013-03-20 00:44:00,
2013-03-19 20:50:00,35.2,2.8,29.83,East,84,20.0,27.0,25,0.00,,,0.22,Wunderground v.1.15,2013-03-20 00:50:00,
2013-03-19 20:58:00,34.8,1.6,29.83,East,80,19.0,27.0,24,0.00,,,0.22,Wunderground v.1.15,2013-03-20 00:58:00,
2013-03-19 21:04:00,34.7,0.6,29.84,ENE,74,20.0,33.0,23,0.00,,,0.22,Wunderground v.1.15,2013-03-20 01:04:00,
2013-03-19 21:10:00,34.4,0.4,29.84,ENE,77,21.0,21.0,23,0.00,,,0.22,Wunderground v.1.15,2013-03-20 01:10:00,
2013-03-19 21:18:00,34.1,1.9,29.86,ENE,76,19.0,21.0,25,0.00,,,0.22,Wunderground v.1.15,2013-03-20 01:18:00,
2013-03-19 21:24:00,33.7,2.4,29.86,ENE,77,15.0,18.0,26,0.00,,,0.22,Wunderground v.1.15,2013-03-20 01:24:00,
2013-03-19 21:32:00,33.5,3.8,29.87,ENE,75,15.0,15.0,28,0.00,,,0.22,Wunderground v.1.15,2013-03-20 01:32:00,
2013-03-19 21:38:00,33.1,4.2,29.87,ENE,75,13.0,15.0,29,0.00,,,0.22,Wunderground v.1.15,2013-03-20 01:38:00,
2013-03-19 21:44:00,32.8,4.7,29.88,ENE,78,11.0,18.0,30,0.00,,,0.22,Wunderground v.1.15,2013-03-20 01:44:00,
2013-03-19 21:50:00,32.7,6.0,29.88,ENE,75,10.0,17.0,32,0.00,,,0.22,Wunderground v.1.15,2013-03-20 01:50:00,
2013-03-19 21:56:00,32.7,6.7,29.87,ENE,77,10.0,17.0,33,0.00,,,0.22,Wunderground v.1.15,2013-03-20 01:56:00,
2013-03-19 22:02:00,32.7,5.3,29.87,ENE,75,12.0,17.0,31,0.00,,,0.22,Wunderground v.1.15,2013-03-20 02:02:00,
2013-03-19 22:08:00,32.5,4.4,29.87,ENE,75,14.0,19.0,30,0.00,,,0.22,Wunderground v.1.15,2013-03-20 02:08:00,
2013-03-19 22:14:00,32.7,3.1,29.86,ENE,74,16.0,19.0,28,0.00,,,0.22,Wunderground v.1.15,2013-03-20 02:14:00,
2013-03-19 22:20:00,32.7,2.3,29.86,ENE,77,19.0,19.0,27,0.00,,,0.22,Wunderground v.1.15,2013-03-20 02:20:00,
2013-03-19 22:28:00,32.5,2.9,29.87,ENE,70,17.0,24.0,28,0.00,,,0.22,Wunderground v.1.15,2013-03-20 02:28:00,
2013-03-19 22:34:00,32.4,2.1,29.87,East,81,16.0,23.0,27,0.00,,,0.22,Wunderground v.1.15,2013-03-20 02:34:00,
2013-03-19 22:40:00,32.3,2.8,29.86,ENE,72,17.0,20.0,28,0.00,,,0.22,Wunderground v.1.15,2013-03-20 02:40:00,
2013-03-19 22:46:00,32.0,3.3,29.88,ENE,77,16.0,20.0,29,0.00,,,0.22,Wunderground v.1.15,2013-03-20 02:46:00,
2013-03-19 22:52:00,32.0,2.5,29.88,East,85,15.0,18.0,28,0.00,,,0.22,Wunderground v.1.15,2013-03-20 02:52:00,
2013-03-19 22:58:00,31.8,3.8,29.87,East,82,16.0,18.0,30,0.00,,,0.22,Wunderground v.1.15,2013-03-20 02:58:00,
2013-03-19 23:04:00,31.6,2.9,29.86,East,86,14.0,22.0,29,0.00,,,0.22,Wunderground v.1.15,2013-03-20 03:04:00,
2013-03-19 23:10:00,31.6,2.9,29.88,East,79,16.0,16.0,29,0.00,,,0.22,Wunderground v.1.15,2013-03-20 03:10:00,
2013-03-19 23:18:00,31.4,3.5,29.88,East,79,14.0,20.0,30,0.00,,,0.22,Wunderground v.1.15,2013-03-20 03:18:00,
2013-03-19 23:24:00,31.2,3.3,29.88,ENE,77,14.0,24.0,30,0.00,,,0.22,Wunderground v.1.15,2013-03-20 03:24:00,
2013-03-19 23:30:00,31.2,2.6,29.88,ENE,77,15.0,19.0,29,0.00,,,0.22,Wunderground v.1.15,2013-03-20 03:30:00,
2013-03-19 23:38:00,31.1,2.5,29.88,ENE,74,19.0,28.0,29,0.00,,,0.22,Wunderground v.1.15,2013-03-20 03:38:00,
2013-03-19 23:44:00,30.8,3.0,29.88,ENE,77,17.0,18.0,30,0.00,,,0.22,Wunderground v.1.15,2013-03-20 03:44:00,
2013-03-19 23:50:00,30.8,2.2,29.87,ENE,75,16.0,16.0,29,0.00,,,0.22,Wunderground v.1.15,2013-03-20 03:50:00,
2013-03-19 23:56:00,30.7,2.1,29.87,ENE,71,15.0,34.0,29,0.00,,,0.22,Wunderground v.1.15,2013-03-20 03:56:00,